createdAt,value
2022-10-23T08:22:21.415Z,17.60
2022-10-23T08:24:48.587Z,17.60
2022-10-23T08:27:15.312Z,17.80
2022-10-23T08:29:43.274Z,17.90
2022-10-23T08:32:10.081Z,18.20
2022-10-23T08:34:42.109Z,18.30
2022-10-23T08:37:08.854Z,18.20
2022-10-23T08:39:36.316Z,18.20
2022-10-23T08:42:03.186Z,18.20
2022-10-23T08:44:39.078Z,18.10
2022-10-23T08:47:14.357Z,17.90
2022-10-23T08:49:50.894Z,17.60
2022-10-23T08:52:31.870Z,17.50
2022-10-23T08:55:04.192Z,17.50
2022-10-23T08:57:38.778Z,17.50
2022-10-23T09:00:09.118Z,17.30
2022-10-23T09:02:45.545Z,17.10
2022-10-23T09:05:15.843Z,17.00
2022-10-23T09:08:00.662Z,16.90
2022-10-23T09:10:55.624Z,16.80
2022-10-23T09:13:34.326Z,16.70
2022-10-23T09:16:42.205Z,16.70
2022-10-23T09:19:15.429Z,16.60
2022-10-23T09:21:42.417Z,16.70
2022-10-23T09:24:14.497Z,16.80
2022-10-23T09:26:42.768Z,16.90
2022-10-23T09:29:29.691Z,16.80
2022-10-23T09:31:58.374Z,16.60
2022-10-23T09:34:26.963Z,16.40
2022-10-23T09:36:58.899Z,16.40
2022-10-23T09:39:32.521Z,16.30
2022-10-23T09:41:59.989Z,16.30
2022-10-23T09:44:28.569Z,16.10
2022-10-23T09:47:00.370Z,15.90
2022-10-23T09:49:31.237Z,15.70
2022-10-23T09:52:02.290Z,15.50
2022-10-23T09:54:59.026Z,15.30
2022-10-23T09:57:41.509Z,15.20
2022-10-23T10:00:16.318Z,15.30
2022-10-23T10:02:44.400Z,15.30
2022-10-23T10:05:31.252Z,15.40
2022-10-23T10:08:10.790Z,15.40
2022-10-23T10:10:44.785Z,15.40
2022-10-23T10:13:33.431Z,15.30
2022-10-23T10:16:11.572Z,15.20
2022-10-23T10:18:40.786Z,15.20
2022-10-23T10:21:28.719Z,15.20
2022-10-23T10:23:58.252Z,15.00
2022-10-23T10:26:42.976Z,14.90
2022-10-23T10:29:30.044Z,15.00
2022-10-23T10:32:15.381Z,14.90
2022-10-23T10:34:42.418Z,14.90
2022-10-23T10:37:24.172Z,14.80
2022-10-23T10:40:14.375Z,14.60
2022-10-23T10:42:43.934Z,14.50
2022-10-23T10:45:13.753Z,14.70
2022-10-23T10:47:43.903Z,14.90
2022-10-23T10:50:25.851Z,15.10
2022-10-23T10:53:08.665Z,15.30
2022-10-23T10:55:38.963Z,15.40
2022-10-23T10:58:28.678Z,15.40
2022-10-23T11:00:57.112Z,15.40
2022-10-23T11:04:11.601Z,15.40
2022-10-23T11:06:38.649Z,15.20
2022-10-23T11:09:20.404Z,15.10
2022-10-23T11:11:48.670Z,15.20
2022-10-23T11:14:23.121Z,15.30
2022-10-23T11:17:12.372Z,15.30
2022-10-23T11:20:03.523Z,15.50
2022-10-23T11:22:36.466Z,15.60
2022-10-23T11:25:41.001Z,15.70
2022-10-23T11:28:13.286Z,15.80
2022-10-23T11:31:12.149Z,15.90
2022-10-23T11:33:57.969Z,16.00
2022-10-23T11:36:43.544Z,15.90
2022-10-23T11:39:22.612Z,15.90
2022-10-23T11:42:00.433Z,16.20
2022-10-23T11:44:48.481Z,16.10
2022-10-23T11:47:39.747Z,16.10
2022-10-23T11:50:07.229Z,16.10
2022-10-23T11:53:12.564Z,16.00
2022-10-23T11:55:39.274Z,16.10
2022-10-23T11:58:23.573Z,16.10
2022-10-23T12:01:15.479Z,16.10
2022-10-23T12:03:49.698Z,16.10
2022-10-23T12:06:26.407Z,16.10
2022-10-23T12:08:55.236Z,15.90
2022-10-23T12:11:39.419Z,15.80
2022-10-23T12:14:07.759Z,15.50
2022-10-23T12:16:35.756Z,15.30
2022-10-23T12:19:11.237Z,15.10
2022-10-23T12:21:38.002Z,15.10
2022-10-23T12:24:29.342Z,15.00
2022-10-23T12:27:06.485Z,14.90
2022-10-23T12:29:45.142Z,15.00
2022-10-23T12:32:27.069Z,14.90
2022-10-23T12:35:05.790Z,15.00
2022-10-23T12:37:41.439Z,15.00
2022-10-23T12:40:09.248Z,14.90
2022-10-23T12:42:36.046Z,14.80
2022-10-23T12:45:19.317Z,14.80
2022-10-23T12:47:46.022Z,14.70
2022-10-23T12:50:30.248Z,14.60
2022-10-23T12:53:04.808Z,14.50
2022-10-23T12:55:53.047Z,14.40
2022-10-23T12:58:33.474Z,14.50
2022-10-23T13:01:02.630Z,14.50
2022-10-23T13:03:30.288Z,14.40
2022-10-23T13:05:58.869Z,14.40
2022-10-23T13:08:29.580Z,14.30
2022-10-23T13:10:56.312Z,14.30
2022-10-23T13:13:23.326Z,14.20
2022-10-23T13:15:50.211Z,14.30
2022-10-23T13:18:17.411Z,14.20
2022-10-23T13:20:58.520Z,14.10
2022-10-23T13:23:32.009Z,14.00
2022-10-23T13:26:02.785Z,13.90
2022-10-23T13:28:45.641Z,13.90
2022-10-23T13:31:16.538Z,13.90
2022-10-23T13:33:48.378Z,13.90
2022-10-23T13:36:15.341Z,13.90
2022-10-23T13:38:44.088Z,13.90
2022-10-23T13:41:18.301Z,13.90
2022-10-23T13:43:46.616Z,13.90
2022-10-23T13:46:25.800Z,13.90
2022-10-23T13:48:53.098Z,14.00
2022-10-23T13:51:21.193Z,14.00
2022-10-23T13:53:48.346Z,14.10
2022-10-23T13:56:16.846Z,14.10
2022-10-23T13:58:43.919Z,14.20
2022-10-23T14:01:24.991Z,14.10
2022-10-23T14:03:52.856Z,14.20
2022-10-23T14:06:20.139Z,14.10
2022-10-23T14:08:47.295Z,14.20
2022-10-23T14:13:47.978Z,14.10
2022-10-23T14:16:18.374Z,14.00
2022-10-23T14:18:47.968Z,13.90
2022-10-23T14:21:16.422Z,13.80
2022-10-23T14:23:43.330Z,13.70
2022-10-23T14:26:11.851Z,13.60
2022-10-23T14:28:39.165Z,13.60
2022-10-23T14:31:14.128Z,13.50
2022-10-23T14:33:41.751Z,13.40
2022-10-23T14:36:09.200Z,13.40
2022-10-23T14:38:36.619Z,13.30
2022-10-23T14:41:03.791Z,13.30
2022-10-23T14:43:30.690Z,13.30
2022-10-23T14:45:57.554Z,13.30
2022-10-23T14:48:24.378Z,13.30
2022-10-23T14:50:51.226Z,13.30
2022-10-23T14:53:18.133Z,13.20
2022-10-23T14:55:56.328Z,13.20
2022-10-23T14:58:37.833Z,13.20
2022-10-23T15:01:20.096Z,13.10
2022-10-23T15:03:59.579Z,13.10
2022-10-23T15:06:38.218Z,13.10
2022-10-23T15:09:19.935Z,13.10
2022-10-23T15:12:00.036Z,13.00
2022-10-23T15:14:41.025Z,13.00
2022-10-23T15:17:26.137Z,12.90
2022-10-23T15:20:04.958Z,12.90
2022-10-23T15:22:52.679Z,12.90
2022-10-23T15:25:34.846Z,12.80
2022-10-23T15:28:12.882Z,12.80
2022-10-23T15:30:49.151Z,12.80
2022-10-23T15:33:29.735Z,12.80
2022-10-23T15:36:15.295Z,12.70
2022-10-23T15:38:56.108Z,12.70
2022-10-23T15:41:40.704Z,12.60
2022-10-23T15:44:33.963Z,12.60
2022-10-23T15:47:09.945Z,12.50
2022-10-23T15:49:52.762Z,12.50
2022-10-23T15:52:33.232Z,12.40
2022-10-23T15:55:17.887Z,12.40
2022-10-23T15:58:08.852Z,12.40
2022-10-23T16:00:44.931Z,12.40
2022-10-23T16:03:28.005Z,12.40
2022-10-23T16:06:10.987Z,12.30
2022-10-23T16:11:37.678Z,12.40
2022-10-23T16:14:20.940Z,12.40
2022-10-23T16:17:02.878Z,12.40
2022-10-23T16:19:47.622Z,12.40
2022-10-23T16:22:16.148Z,12.40
2022-10-23T16:24:43.010Z,12.40
2022-10-23T16:27:09.764Z,12.40
2022-10-23T16:29:36.535Z,12.40
2022-10-23T16:32:03.365Z,12.40
2022-10-23T16:34:30.090Z,12.50
2022-10-23T16:36:56.817Z,12.40
2022-10-23T16:39:23.539Z,12.40
2022-10-23T16:41:50.277Z,12.40
2022-10-23T16:44:17.213Z,12.40
2022-10-23T16:46:43.932Z,12.50
2022-10-23T16:49:10.678Z,12.50
2022-10-23T16:51:37.490Z,12.50
2022-10-23T16:54:04.332Z,12.50
2022-10-23T16:56:31.386Z,12.50
2022-10-23T17:01:31.117Z,12.40
2022-10-23T17:03:58.023Z,12.40
2022-10-23T17:06:27.094Z,12.40
2022-10-23T17:08:54.742Z,12.40
2022-10-23T17:11:32.371Z,12.50
2022-10-23T17:14:05.742Z,12.40
2022-10-23T17:16:59.166Z,12.50
2022-10-23T17:19:46.846Z,12.50
2022-10-23T17:22:25.056Z,12.50
2022-10-23T17:25:04.044Z,12.50
2022-10-23T17:27:46.380Z,12.50
2022-10-23T17:30:22.483Z,12.40
2022-10-23T17:33:08.134Z,12.40
2022-10-23T17:36:07.111Z,12.40
2022-10-23T17:39:01.305Z,12.50
2022-10-23T17:41:58.120Z,12.50
2022-10-23T17:44:40.437Z,12.50
2022-10-23T17:47:41.151Z,12.50
2022-10-23T17:50:38.087Z,12.50
2022-10-23T17:53:39.817Z,12.50
2022-10-23T17:56:26.970Z,12.50
2022-10-23T17:59:10.045Z,12.60
2022-10-23T18:01:55.166Z,12.60
2022-10-23T18:04:30.112Z,12.60
2022-10-23T18:07:11.159Z,12.60
2022-10-23T18:09:50.573Z,12.60
2022-10-23T18:12:34.131Z,12.70
2022-10-23T18:15:18.440Z,12.70
2022-10-23T18:18:11.700Z,12.70
2022-10-23T18:21:10.529Z,12.70
2022-10-23T18:23:52.186Z,12.70
2022-10-23T18:26:37.723Z,12.80
2022-10-23T18:29:07.484Z,12.80
2022-10-23T18:31:46.020Z,12.80
2022-10-23T18:34:27.962Z,12.80
2022-10-23T18:37:09.595Z,12.90
2022-10-23T18:39:58.202Z,12.90
2022-10-23T18:42:34.130Z,12.90
2022-10-23T18:45:21.667Z,12.90
2022-10-23T18:48:15.586Z,12.90
2022-10-23T18:50:51.285Z,12.90
2022-10-23T18:53:46.987Z,13.00
2022-10-23T18:56:30.236Z,13.00
2022-10-23T18:59:06.985Z,13.00
2022-10-23T19:01:47.119Z,13.00
2022-10-23T19:04:26.041Z,13.10
2022-10-23T19:07:30.338Z,13.10
2022-10-23T19:10:19.023Z,13.10
2022-10-23T19:12:58.158Z,13.20
2022-10-23T19:15:39.867Z,13.30
2022-10-23T19:18:18.971Z,13.30
2022-10-23T19:21:01.134Z,13.30
2022-10-23T19:23:46.013Z,13.30
2022-10-23T19:26:25.202Z,13.20
2022-10-23T19:29:03.883Z,13.30
2022-10-23T19:31:53.979Z,13.30
2022-10-23T19:34:33.129Z,13.30
2022-10-23T19:37:24.100Z,13.30
2022-10-23T19:40:03.167Z,13.30
2022-10-23T19:42:43.720Z,13.30
2022-10-23T19:48:18.888Z,13.30
2022-10-23T19:51:03.153Z,13.30
2022-10-23T19:53:54.257Z,13.30
2022-10-23T19:56:33.258Z,13.30
2022-10-23T19:59:25.084Z,13.30
2022-10-23T20:02:17.323Z,13.30
2022-10-23T20:05:03.117Z,13.30
2022-10-23T20:07:39.196Z,13.30
2022-10-23T20:10:20.191Z,13.30
2022-10-23T20:12:57.098Z,13.30
2022-10-23T20:15:45.794Z,13.30
2022-10-23T20:18:38.232Z,13.30
2022-10-23T20:21:17.247Z,13.30
2022-10-23T20:23:58.438Z,13.30
2022-10-23T20:26:32.986Z,13.30
2022-10-23T20:29:14.683Z,13.30
2022-10-23T20:31:54.202Z,13.40
2022-10-23T20:34:29.128Z,13.30
2022-10-23T20:37:13.640Z,13.30
2022-10-23T20:40:01.098Z,13.30
2022-10-23T20:42:42.239Z,13.30
2022-10-23T20:45:23.754Z,13.30
2022-10-23T20:48:14.684Z,13.30
2022-10-23T20:50:53.242Z,13.30
2022-10-23T20:53:33.174Z,13.30
2022-10-23T20:56:36.074Z,13.20
2022-10-23T20:59:37.958Z,13.20
2022-10-23T21:02:16.878Z,13.20
2022-10-23T21:05:05.370Z,13.20
2022-10-23T21:07:43.977Z,13.20
2022-10-23T21:10:28.414Z,13.10
2022-10-23T21:13:12.339Z,13.10
2022-10-23T21:15:50.966Z,13.20
2022-10-23T21:18:45.405Z,13.10
2022-10-23T21:21:37.056Z,13.10
2022-10-23T21:24:23.295Z,13.10
2022-10-23T21:27:06.141Z,13.10
2022-10-23T21:29:48.152Z,13.10
2022-10-23T21:32:30.860Z,13.10
2022-10-23T21:35:14.040Z,13.20
2022-10-23T21:37:56.086Z,13.10
2022-10-23T21:40:39.209Z,13.10
2022-10-23T21:43:22.057Z,13.10
2022-10-23T21:46:04.200Z,13.10
2022-10-23T21:48:46.484Z,13.10
2022-10-23T21:51:34.559Z,13.10
2022-10-23T21:54:17.938Z,13.00
2022-10-23T21:56:57.913Z,13.00
2022-10-23T21:59:38.234Z,13.00
2022-10-23T22:02:17.374Z,13.00
2022-10-23T22:05:03.938Z,13.00
2022-10-23T22:07:43.154Z,12.90
2022-10-23T22:10:24.893Z,12.90
2022-10-23T22:13:05.489Z,12.90
2022-10-23T22:15:41.404Z,12.90
2022-10-23T22:18:36.141Z,12.80
2022-10-23T22:21:29.068Z,12.90
2022-10-23T22:24:07.307Z,12.90
2022-10-23T22:26:46.031Z,12.90
2022-10-23T22:29:25.856Z,12.90
2022-10-23T22:32:04.743Z,12.90
2022-10-23T22:34:52.726Z,12.90
2022-10-23T22:37:34.496Z,12.90
2022-10-23T22:40:17.240Z,12.90
2022-10-23T22:42:58.869Z,12.90
2022-10-23T22:45:37.789Z,12.90
2022-10-23T22:48:13.081Z,12.90
2022-10-23T22:51:00.726Z,12.90
2022-10-23T22:53:40.070Z,12.90
2022-10-23T22:56:23.011Z,12.90
2022-10-23T22:59:01.862Z,12.90
2022-10-23T23:01:51.394Z,12.90
2022-10-23T23:04:38.692Z,12.90
2022-10-23T23:07:27.556Z,12.80
2022-10-23T23:10:07.071Z,12.80
2022-10-23T23:12:51.177Z,12.80
2022-10-23T23:15:37.076Z,12.80
2022-10-23T23:18:19.991Z,12.80
2022-10-23T23:21:01.232Z,12.90
2022-10-23T23:23:40.072Z,12.90
2022-10-23T23:26:24.140Z,12.90
2022-10-23T23:29:03.206Z,12.80
2022-10-23T23:31:41.792Z,12.90
